sensor_id;sensor_type;location;lat;lon;timestamp;pressure;altitude;pressure_sealevel;temperature;humidity
34185;BME280;20454;48.100;11.776;2022-11-14T00:00:38;95477.84;;;3.22;100.00
34185;BME280;20454;48.100;11.776;2022-11-14T00:03:06;95476.47;;;3.20;100.00
34185;BME280;20454;48.100;11.776;2022-11-14T00:05:37;95477.84;;;3.17;100.00
34185;BME280;20454;48.100;11.776;2022-11-14T00:08:04;95475.34;;;3.16;100.00
34185;BME280;20454;48.100;11.776;2022-11-14T00:10:30;95463.56;;;3.05;100.00
34185;BME280;20454;48.100;11.776;2022-11-14T00:12:55;95462.19;;;3.08;100.00
34185;BME280;20454;48.100;11.776;2022-11-14T00:15:21;95470.69;;;3.06;100.00
34185;BME280;20454;48.100;11.776;2022-11-14T00:17:47;95464.91;;;3.03;100.00
34185;BME280;20454;48.100;11.776;2022-11-14T00:20:13;95462.19;;;3.03;100.00
34185;BME280;20454;48.100;11.776;2022-11-14T00:22:39;95456.97;;;3.01;100.00
34185;BME280;20454;48.100;11.776;2022-11-14T00:25:05;95474.81;;;3.09;100.00
34185;BME280;20454;48.100;11.776;2022-11-14T00:27:31;95483.59;;;3.11;100.00
34185;BME280;20454;48.100;11.776;2022-11-14T00:29:56;95475.91;;;3.13;100.00
34185;BME280;20454;48.100;11.776;2022-11-14T00:32:22;95469.06;;;3.15;100.00
34185;BME280;20454;48.100;11.776;2022-11-14T00:34:48;95477.56;;;3.14;100.00
34185;BME280;20454;48.100;11.776;2022-11-14T00:37:14;95475.66;;;3.09;100.00
34185;BME280;20454;48.100;11.776;2022-11-14T00:39:40;95476.19;;;3.06;100.00
34185;BME280;20454;48.100;11.776;2022-11-14T00:42:06;95477.00;;;3.02;100.00
34185;BME280;20454;48.100;11.776;2022-11-14T00:44:31;95482.50;;;2.97;100.00
34185;BME280;20454;48.100;11.776;2022-11-14T00:46:57;95487.72;;;2.93;100.00
34185;BME280;20454;48.100;11.776;2022-11-14T00:49:23;95472.63;;;2.86;100.00
34185;BME280;20454;48.100;11.776;2022-11-14T00:51:49;95474.00;;;2.78;100.00
34185;BME280;20454;48.100;11.776;2022-11-14T00:54:14;95481.72;;;2.66;100.00
34185;BME280;20454;48.100;11.776;2022-11-14T00:56:40;95465.47;;;2.55;100.00
34185;BME280;20454;48.100;11.776;2022-11-14T00:59:06;95478.13;;;2.56;100.00
34185;BME280;20454;48.100;11.776;2022-11-14T01:01:32;95481.69;;;2.56;100.00
34185;BME280;20454;48.100;11.776;2022-11-14T01:03:58;95476.47;;;2.55;100.00
34185;BME280;20454;48.100;11.776;2022-11-14T01:06:23;95477.03;;;2.57;100.00
34185;BME280;20454;48.100;11.776;2022-11-14T01:08:50;95476.47;;;2.50;100.00
34185;BME280;20454;48.100;11.776;2022-11-14T01:11:19;95474.56;;;2.55;100.00
34185;BME280;20454;48.100;11.776;2022-11-14T01:13:46;95480.56;;;2.52;100.00
34185;BME280;20454;48.100;11.776;2022-11-14T01:16:12;95471.53;;;2.52;100.00
34185;BME280;20454;48.100;11.776;2022-11-14T01:18:38;95465.75;;;2.48;100.00
34185;BME280;20454;48.100;11.776;2022-11-14T01:21:11;95463.28;;;2.47;100.00
34185;BME280;20454;48.100;11.776;2022-11-14T01:23:37;95459.72;;;2.41;100.00
34185;BME280;20454;48.100;11.776;2022-11-14T01:26:10;95455.56;;;2.34;100.00
34185;BME280;20454;48.100;11.776;2022-11-14T01:28:37;95459.69;;;2.31;100.00
34185;BME280;20454;48.100;11.776;2022-11-14T01:31:22;95457.22;;;2.25;100.00
34185;BME280;20454;48.100;11.776;2022-11-14T01:33:50;95461.59;;;2.26;100.00
34185;BME280;20454;48.100;11.776;2022-11-14T01:36:16;95446.22;;;2.20;100.00
34185;BME280;20454;48.100;11.776;2022-11-14T01:38:42;95444.31;;;2.20;100.00
34185;BME280;20454;48.100;11.776;2022-11-14T01:41:11;95451.44;;;2.21;100.00
34185;BME280;20454;48.100;11.776;2022-11-14T01:43:38;95450.63;;;2.16;100.00
34185;BME280;20454;48.100;11.776;2022-11-14T01:46:22;95449.50;;;2.17;100.00
34185;BME280;20454;48.100;11.776;2022-11-14T01:51:48;95427.81;;;2.10;100.00
34185;BME280;20454;48.100;11.776;2022-11-14T01:54:28;95414.13;;;2.05;100.00
34185;BME280;20454;48.100;11.776;2022-11-14T01:56:59;95420.97;;;2.08;100.00
34185;BME280;20454;48.100;11.776;2022-11-14T01:59:34;95424.78;;;2.07;100.00
34185;BME280;20454;48.100;11.776;2022-11-14T02:02:07;95433.28;;;2.00;100.00
34185;BME280;20454;48.100;11.776;2022-11-14T02:04:40;95441.25;;;2.02;100.00
34185;BME280;20454;48.100;11.776;2022-11-14T02:07:08;95462.38;;;2.06;100.00
34185;BME280;20454;48.100;11.776;2022-11-14T02:09:37;95467.31;;;2.04;100.00
34185;BME280;20454;48.100;11.776;2022-11-14T02:12:09;95450.84;;;1.99;100.00
34185;BME280;20454;48.100;11.776;2022-11-14T02:14:37;95455.25;;;2.00;100.00
34185;BME280;20454;48.100;11.776;2022-11-14T02:17:03;95466.47;;;1.99;100.00
34185;BME280;20454;48.100;11.776;2022-11-14T02:20:34;95452.22;;;2.02;100.00
34185;BME280;20454;48.100;11.776;2022-11-14T02:22:41;95451.94;;;2.03;100.00
34185;BME280;20454;48.100;11.776;2022-11-14T02:25:09;95430.84;;;2.04;100.00
34185;BME280;20454;48.100;11.776;2022-11-14T02:27:37;95437.44;;;2.08;100.00
34185;BME280;20454;48.100;11.776;2022-11-14T02:30:07;95434.69;;;2.08;100.00
34185;BME280;20454;48.100;11.776;2022-11-14T02:32:34;95438.81;;;2.05;100.00
34185;BME280;20454;48.100;11.776;2022-11-14T02:35:00;95435.22;;;2.05;100.00
34185;BME280;20454;48.100;11.776;2022-11-14T02:37:25;95436.03;;;2.00;100.00
34185;BME280;20454;48.100;11.776;2022-11-14T02:39:51;95430.00;;;1.98;100.00
34185;BME280;20454;48.100;11.776;2022-11-14T02:42:17;95412.72;;;2.03;100.00
34185;BME280;20454;48.100;11.776;2022-11-14T02:44:42;95405.84;;;1.95;100.00
34185;BME280;20454;48.100;11.776;2022-11-14T02:47:08;95405.31;;;1.98;100.00
34185;BME280;20454;48.100;11.776;2022-11-14T02:49:34;95405.59;;;1.97;100.00
34185;BME280;20454;48.100;11.776;2022-11-14T02:52:00;95399.25;;;1.96;100.00
34185;BME280;20454;48.100;11.776;2022-11-14T02:54:25;95399.56;;;1.95;100.00
34185;BME280;20454;48.100;11.776;2022-11-14T02:56:51;95400.66;;;1.94;100.00
34185;BME280;20454;48.100;11.776;2022-11-14T02:59:17;95400.66;;;1.94;100.00
34185;BME280;20454;48.100;11.776;2022-11-14T05:31:33;95389.22;;;1.40;100.00
34185;BME280;20454;48.100;11.776;2022-11-14T05:33:59;95391.13;;;1.35;100.00
34185;BME280;20454;48.100;11.776;2022-11-14T05:36:25;95401.81;;;1.31;100.00
34185;BME280;20454;48.100;11.776;2022-11-14T05:38:50;95420.44;;;1.29;100.00
34185;BME280;20454;48.100;11.776;2022-11-14T05:41:17;95411.63;;;1.22;100.00
34185;BME280;20454;48.100;11.776;2022-11-14T05:43:45;95435.75;;;1.25;100.00
34185;BME280;20454;48.100;11.776;2022-11-14T05:46:13;95433.25;;;1.24;100.00
34185;BME280;20454;48.100;11.776;2022-11-14T05:48:40;95429.16;;;1.21;100.00
34185;BME280;20454;48.100;11.776;2022-11-14T05:51:08;95437.09;;;1.23;100.00
34185;BME280;20454;48.100;11.776;2022-11-14T05:53:35;95438.75;;;1.24;100.00
34185;BME280;20454;48.100;11.776;2022-11-14T05:56:03;95423.09;;;1.19;100.00
34185;BME280;20454;48.100;11.776;2022-11-14T05:58:34;95426.41;;;1.16;100.00
34185;BME280;20454;48.100;11.776;2022-11-14T06:01:13;95436.00;;;1.19;100.00
34185;BME280;20454;48.100;11.776;2022-11-14T06:39:55;95453.72;;;1.58;100.00
34185;BME280;20454;48.100;11.776;2022-11-14T06:42:21;95441.97;;;1.67;100.00
34185;BME280;20454;48.100;11.776;2022-11-14T06:44:47;95445.25;;;1.69;100.00
34185;BME280;20454;48.100;11.776;2022-11-14T06:47:12;95459.28;;;1.83;100.00
34185;BME280;20454;48.100;11.776;2022-11-14T06:49:38;95454.91;;;1.82;100.00
34185;BME280;20454;48.100;11.776;2022-11-14T06:52:04;95457.94;;;1.85;100.00
34185;BME280;20454;48.100;11.776;2022-11-14T06:54:30;95452.16;;;1.82;100.00
34185;BME280;20454;48.100;11.776;2022-11-14T06:56:55;95454.06;;;1.81;100.00
34185;BME280;20454;48.100;11.776;2022-11-14T06:59:21;95434.59;;;1.73;100.00
34185;BME280;20454;48.100;11.776;2022-11-14T07:01:47;95448.03;;;1.79;100.00
34185;BME280;20454;48.100;11.776;2022-11-14T07:04:12;95449.94;;;1.79;100.00
34185;BME280;20454;48.100;11.776;2022-11-14T07:06:38;95445.31;;;1.79;100.00
34185;BME280;20454;48.100;11.776;2022-11-14T07:09:04;95435.16;;;1.80;100.00
34185;BME280;20454;48.100;11.776;2022-11-14T07:11:30;95441.19;;;1.82;100.00
34185;BME280;20454;48.100;11.776;2022-11-14T07:14:02;95441.72;;;1.79;100.00
34185;BME280;20454;48.100;11.776;2022-11-14T07:16:32;95444.47;;;1.79;100.00
34185;BME280;20454;48.100;11.776;2022-11-14T07:19:01;95449.13;;;1.78;100.00
34185;BME280;20454;48.100;11.776;2022-11-14T07:21:28;95452.47;;;1.85;100.00
34185;BME280;20454;48.100;11.776;2022-11-14T07:23:55;95454.09;;;1.86;100.00
34185;BME280;20454;48.100;11.776;2022-11-14T07:26:22;95452.75;;;1.89;100.00
34185;BME280;20454;48.100;11.776;2022-11-14T07:28:48;95457.66;;;1.92;100.00
34185;BME280;20454;48.100;11.776;2022-11-14T07:31:16;95439.56;;;1.91;100.00
34185;BME280;20454;48.100;11.776;2022-11-14T07:33:44;95456.06;;;2.01;100.00
34185;BME280;20454;48.100;11.776;2022-11-14T07:36:11;95457.72;;;2.02;100.00
34185;BME280;20454;48.100;11.776;2022-11-14T07:38:38;95457.72;;;2.07;100.00
34185;BME280;20454;48.100;11.776;2022-11-14T07:41:11;95453.31;;;2.06;100.00
34185;BME280;20454;48.100;11.776;2022-11-14T07:43:37;95435.75;;;2.07;100.00
34185;BME280;20454;48.100;11.776;2022-11-14T07:46:11;95447.31;;;2.19;100.00
34185;BME280;20454;48.100;11.776;2022-11-14T07:48:37;95440.19;;;2.23;100.00
34185;BME280;20454;48.100;11.776;2022-11-14T07:51:06;95439.66;;;2.26;100.00
34185;BME280;20454;48.100;11.776;2022-11-14T07:53:33;95444.88;;;2.32;100.00
34185;BME280;20454;48.100;11.776;2022-11-14T07:56:04;95438.84;;;2.35;100.00
34185;BME280;20454;48.100;11.776;2022-11-14T07:58:30;95428.69;;;2.36;100.00
34185;BME280;20454;48.100;11.776;2022-11-14T08:01:00;95446.25;;;2.45;100.00
34185;BME280;20454;48.100;11.776;2022-11-14T08:03:27;95430.59;;;2.45;100.00
34185;BME280;20454;48.100;11.776;2022-11-14T08:06:08;95427.59;;;2.52;100.00
34185;BME280;20454;48.100;11.776;2022-11-14T08:08:34;95419.09;;;2.53;100.00
34185;BME280;20454;48.100;11.776;2022-11-14T08:11:01;95416.63;;;2.57;100.00
34185;BME280;20454;48.100;11.776;2022-11-14T08:13:27;95413.59;;;2.63;100.00
34185;BME280;20454;48.100;11.776;2022-11-14T08:15:53;95413.59;;;2.68;100.00
34185;BME280;20454;48.100;11.776;2022-11-14T08:18:20;95422.38;;;2.75;100.00
34185;BME280;20454;48.100;11.776;2022-11-14T08:20:46;95417.44;;;2.82;100.00
34185;BME280;20454;48.100;11.776;2022-11-14T08:23:12;95413.03;;;2.91;100.00
34185;BME280;20454;48.100;11.776;2022-11-14T08:25:38;95427.28;;;3.03;100.00
34185;BME280;20454;48.100;11.776;2022-11-14T08:28:04;95421.78;;;3.13;100.00
34185;BME280;20454;48.100;11.776;2022-11-14T08:30:30;95424.50;;;3.18;100.00
34185;BME280;20454;48.100;11.776;2022-11-14T08:32:56;95420.66;;;3.29;100.00
34185;BME280;20454;48.100;11.776;2022-11-14T08:35:24;95407.44;;;3.36;100.00
34185;BME280;20454;48.100;11.776;2022-11-14T08:37:49;95415.34;;;3.53;100.00
34185;BME280;20454;48.100;11.776;2022-11-14T08:40:15;95412.81;;;3.61;100.00
34185;BME280;20454;48.100;11.776;2022-11-14T08:42:41;95414.44;;;3.72;100.00
34185;BME280;20454;48.100;11.776;2022-11-14T08:45:07;95405.34;;;3.77;100.00
34185;BME280;20454;48.100;11.776;2022-11-14T08:47:33;95402.84;;;3.80;100.00
34185;BME280;20454;48.100;11.776;2022-11-14T08:49:58;95406.38;;;3.91;100.00
34185;BME280;20454;48.100;11.776;2022-11-14T08:52:24;95395.63;;;3.94;100.00
34185;BME280;20454;48.100;11.776;2022-11-14T08:54:50;95391.16;;;4.03;100.00
34185;BME280;20454;48.100;11.776;2022-11-14T08:57:15;95387.50;;;4.18;100.00
34185;BME280;20454;48.100;11.776;2022-11-14T08:59:41;95393.72;;;4.33;100.00
34185;BME280;20454;48.100;11.776;2022-11-14T09:02:11;95380.09;;;4.52;100.00
34185;BME280;20454;48.100;11.776;2022-11-14T09:04:38;95376.53;;;4.79;100.00
34185;BME280;20454;48.100;11.776;2022-11-14T09:07:04;95374.88;;;5.07;100.00
34185;BME280;20454;48.100;11.776;2022-11-14T09:09:30;95391.47;;;5.30;100.00
34185;BME280;20454;48.100;11.776;2022-11-14T09:11:56;95381.97;;;5.41;100.00
34185;BME280;20454;48.100;11.776;2022-11-14T09:14:21;95383.66;;;5.61;100.00
34185;BME280;20454;48.100;11.776;2022-11-14T09:16:47;95383.31;;;5.91;100.00
34185;BME280;20454;48.100;11.776;2022-11-14T09:19:13;95382.47;;;6.32;100.00
34185;BME280;20454;48.100;11.776;2022-11-14T09:21:39;95374.94;;;6.88;98.26
34185;BME280;20454;48.100;11.776;2022-11-14T09:24:05;95371.56;;;7.50;95.27
34185;BME280;20454;48.100;11.776;2022-11-14T09:26:31;95393.94;;;8.08;92.29
34185;BME280;20454;48.100;11.776;2022-11-14T09:28:57;95392.47;;;8.73;89.00
34185;BME280;20454;48.100;11.776;2022-11-14T09:31:23;95394.50;;;9.47;83.33
34185;BME280;20454;48.100;11.776;2022-11-14T09:33:49;95390.09;;;10.06;80.30
34185;BME280;20454;48.100;11.776;2022-11-14T09:36:14;95392.69;;;10.59;77.50
34185;BME280;20454;48.100;11.776;2022-11-14T09:38:42;95374.03;;;11.02;74.79
34185;BME280;20454;48.100;11.776;2022-11-14T09:47:48;95376.06;;;11.73;68.75
34185;BME280;20454;48.100;11.776;2022-11-14T09:50:19;95384.81;;;11.63;70.19
34185;BME280;20454;48.100;11.776;2022-11-14T09:53:02;95377.44;;;11.58;70.89
34185;BME280;20454;48.100;11.776;2022-11-14T09:55:32;95377.25;;;11.63;71.05
34185;BME280;20454;48.100;11.776;2022-11-14T09:58:02;95381.63;;;11.81;70.84
34185;BME280;20454;48.100;11.776;2022-11-14T10:03:50;95377.97;;;12.56;66.58
34185;BME280;20454;48.100;11.776;2022-11-14T10:12:21;95379.06;;;13.33;62.47
34185;BME280;20454;48.100;11.776;2022-11-14T10:17:55;95372.91;;;13.40;64.15
34185;BME280;20454;48.100;11.776;2022-11-14T10:20:49;95367.50;;;13.23;62.74
34185;BME280;20454;48.100;11.776;2022-11-14T10:26:29;95361.41;;;12.80;66.01
34185;BME280;20454;48.100;11.776;2022-11-14T10:32:28;95356.88;;;12.17;68.80
34185;BME280;20454;48.100;11.776;2022-11-14T10:35:20;95377.34;;;11.84;69.97
34185;BME280;20454;48.100;11.776;2022-11-14T10:40:48;95377.28;;;11.38;72.06
34185;BME280;20454;48.100;11.776;2022-11-14T10:43:46;95366.16;;;11.21;74.63
34185;BME280;20454;48.100;11.776;2022-11-14T10:46:36;95381.56;;;11.18;74.38
34185;BME280;20454;48.100;11.776;2022-11-14T10:49:24;95385.81;;;11.24;74.66
34185;BME280;20454;48.100;11.776;2022-11-14T10:51:54;95381.22;;;11.28;75.06
34185;BME280;20454;48.100;11.776;2022-11-14T10:55:13;95388.09;;;11.39;74.92
34185;BME280;20454;48.100;11.776;2022-11-14T10:57:21;95386.63;;;11.42;73.11
34185;BME280;20454;48.100;11.776;2022-11-14T10:59:47;95396.09;;;11.49;68.00
34185;BME280;20454;48.100;11.776;2022-11-14T11:02:14;95386.44;;;11.64;66.96
34185;BME280;20454;48.100;11.776;2022-11-14T11:04:43;95402.28;;;11.80;66.94
34185;BME280;20454;48.100;11.776;2022-11-14T11:09:37;95386.03;;;11.82;68.03
34185;BME280;20454;48.100;11.776;2022-11-14T11:12:47;95392.63;;;11.78;70.55
34185;BME280;20454;48.100;11.776;2022-11-14T11:15:30;95397.22;;;11.74;71.84
34185;BME280;20454;48.100;11.776;2022-11-14T11:18:22;95392.47;;;11.74;73.05
34185;BME280;20454;48.100;11.776;2022-11-14T11:23:33;95395.34;;;11.95;72.63
34185;BME280;20454;48.100;11.776;2022-11-14T11:28:42;95401.50;;;12.17;73.60
34185;BME280;20454;48.100;11.776;2022-11-14T11:31:09;95397.06;;;12.16;74.25
34185;BME280;20454;48.100;11.776;2022-11-14T11:33:38;95398.34;;;12.27;73.81
34185;BME280;20454;48.100;11.776;2022-11-14T11:36:21;95410.13;;;12.33;73.77
34185;BME280;20454;48.100;11.776;2022-11-14T11:38:48;95402.56;;;12.33;73.71
34185;BME280;20454;48.100;11.776;2022-11-14T11:41:28;95399.00;;;12.24;74.09
34185;BME280;20454;48.100;11.776;2022-11-14T11:44:05;95407.19;;;12.29;75.03
34185;BME280;20454;48.100;11.776;2022-11-14T11:46:49;95409.16;;;12.29;74.67
34185;BME280;20454;48.100;11.776;2022-11-14T11:49:25;95407.16;;;12.38;75.21
34185;BME280;20454;48.100;11.776;2022-11-14T11:52:09;95398.38;;;12.48;74.13
34185;BME280;20454;48.100;11.776;2022-11-14T11:57:41;95411.44;;;12.85;73.12
34185;BME280;20454;48.100;11.776;2022-11-14T12:00:20;95417.44;;;13.04;71.79
34185;BME280;20454;48.100;11.776;2022-11-14T12:02:49;95416.44;;;13.29;71.37
34185;BME280;20454;48.100;11.776;2022-11-14T12:09:05;95421.84;;;13.66;68.22
34185;BME280;20454;48.100;11.776;2022-11-14T12:11:24;95427.44;;;13.99;68.65
34185;BME280;20454;48.100;11.776;2022-11-14T12:25:43;95450.59;;;13.99;65.44
34185;BME280;20454;48.100;11.776;2022-11-14T12:31:15;95439.53;;;14.03;64.43
34185;BME280;20454;48.100;11.776;2022-11-14T12:33:50;95444.09;;;13.95;63.41
34185;BME280;20454;48.100;11.776;2022-11-14T12:36:18;95441.69;;;13.85;63.40
34185;BME280;20454;48.100;11.776;2022-11-14T12:38:48;95430.38;;;13.82;64.21
34185;BME280;20454;48.100;11.776;2022-11-14T12:41:29;95447.22;;;13.94;64.21
34185;BME280;20454;48.100;11.776;2022-11-14T12:58:35;95477.81;;;13.58;61.82
34185;BME280;20454;48.100;11.776;2022-11-14T13:10:10;95479.03;;;12.70;63.02
34185;BME280;20454;48.100;11.776;2022-11-14T13:12:42;95477.59;;;12.64;63.63
34185;BME280;20454;48.100;11.776;2022-11-14T13:15:55;95485.34;;;12.58;64.28
34185;BME280;20454;48.100;11.776;2022-11-14T13:19:02;95471.63;;;12.45;64.93
34185;BME280;20454;48.100;11.776;2022-11-14T13:27:35;95475.06;;;12.79;65.52
34185;BME280;20454;48.100;11.776;2022-11-14T13:30:03;95468.09;;;12.94;65.18
34185;BME280;20454;48.100;11.776;2022-11-14T13:35:44;95475.44;;;13.27;62.75
34185;BME280;20454;48.100;11.776;2022-11-14T13:38:32;95481.16;;;13.51;62.76
34185;BME280;20454;48.100;11.776;2022-11-14T13:41:42;95470.94;;;13.76;62.52
34185;BME280;20454;48.100;11.776;2022-11-14T13:50:27;95468.19;;;13.06;64.93
34185;BME280;20454;48.100;11.776;2022-11-14T13:52:54;95472.66;;;12.69;66.54
34185;BME280;20454;48.100;11.776;2022-11-14T14:01:38;95472.31;;;11.70;72.02
34185;BME280;20454;48.100;11.776;2022-11-14T14:10:50;95465.44;;;11.59;73.14
34185;BME280;20454;48.100;11.776;2022-11-14T14:13:52;95468.53;;;11.49;73.49
34185;BME280;20454;48.100;11.776;2022-11-14T14:16:54;95476.41;;;11.30;73.97
34185;BME280;20454;48.100;11.776;2022-11-14T14:19:50;95469.03;;;11.09;74.76
34185;BME280;20454;48.100;11.776;2022-11-14T14:32:18;95467.41;;;10.43;80.46
34185;BME280;20454;48.100;11.776;2022-11-14T14:34:44;95472.44;;;10.33;80.67
34185;BME280;20454;48.100;11.776;2022-11-14T14:37:22;95478.09;;;10.19;81.04
34185;BME280;20454;48.100;11.776;2022-11-14T14:40:20;95467.41;;;10.04;81.78
34185;BME280;20454;48.100;11.776;2022-11-14T14:42:46;95470.25;;;9.91;82.50
34185;BME280;20454;48.100;11.776;2022-11-14T14:45:19;95461.00;;;9.73;82.86
34185;BME280;20454;48.100;11.776;2022-11-14T14:47:49;95470.91;;;9.66;83.65
34185;BME280;20454;48.100;11.776;2022-11-14T14:50:23;95474.56;;;9.53;83.59
34185;BME280;20454;48.100;11.776;2022-11-14T14:52:58;95462.41;;;9.41;84.61
34185;BME280;20454;48.100;11.776;2022-11-14T14:55:33;95462.16;;;9.29;85.01
34185;BME280;20454;48.100;11.776;2022-11-14T15:01:05;95473.22;;;9.07;86.13
34185;BME280;20454;48.100;11.776;2022-11-14T15:03:41;95480.47;;;8.94;86.79
34185;BME280;20454;48.100;11.776;2022-11-14T15:06:48;95474.13;;;8.80;87.39
34185;BME280;20454;48.100;11.776;2022-11-14T15:09:22;95467.50;;;8.68;87.87
34185;BME280;20454;48.100;11.776;2022-11-14T15:11:52;95468.00;;;8.56;88.38
34185;BME280;20454;48.100;11.776;2022-11-14T15:14:22;95467.94;;;8.48;89.07
34185;BME280;20454;48.100;11.776;2022-11-14T15:16:49;95474.50;;;8.38;89.88
34185;BME280;20454;48.100;11.776;2022-11-14T15:19:19;95479.44;;;8.28;90.04
34185;BME280;20454;48.100;11.776;2022-11-14T15:24:35;95480.31;;;8.10;91.24
34185;BME280;20454;48.100;11.776;2022-11-14T15:27:16;95484.44;;;7.99;92.26
34185;BME280;20454;48.100;11.776;2022-11-14T15:29:47;95476.59;;;7.87;92.95
34185;BME280;20454;48.100;11.776;2022-11-14T15:32:23;95471.78;;;7.79;93.45
34185;BME280;20454;48.100;11.776;2022-11-14T15:40:36;95488.31;;;7.52;94.87
34185;BME280;20454;48.100;11.776;2022-11-14T15:43:48;95486.03;;;7.41;95.54
34185;BME280;20454;48.100;11.776;2022-11-14T15:46:38;95482.34;;;7.32;95.53
34185;BME280;20454;48.100;11.776;2022-11-14T15:51:59;95476.84;;;7.13;96.58
34185;BME280;20454;48.100;11.776;2022-11-14T15:54:32;95485.00;;;7.05;97.02
34185;BME280;20454;48.100;11.776;2022-11-14T15:57:04;95490.38;;;6.96;97.20
34185;BME280;20454;48.100;11.776;2022-11-14T15:59:31;95490.47;;;6.91;97.86
34185;BME280;20454;48.100;11.776;2022-11-14T16:02:25;95488.34;;;6.83;98.80
34185;BME280;20454;48.100;11.776;2022-11-14T16:04:54;95491.72;;;6.80;99.52
34185;BME280;20454;48.100;11.776;2022-11-14T16:07:21;95488.75;;;6.77;99.55
34185;BME280;20454;48.100;11.776;2022-11-14T16:09:47;95504.81;;;6.75;99.84
34185;BME280;20454;48.100;11.776;2022-11-14T16:12:13;95496.66;;;6.65;99.88
34185;BME280;20454;48.100;11.776;2022-11-14T16:14:39;95486.50;;;6.60;100.00
34185;BME280;20454;48.100;11.776;2022-11-14T16:17:13;95491.28;;;6.55;100.00
34185;BME280;20454;48.100;11.776;2022-11-14T16:19:39;95497.16;;;6.48;100.00
34185;BME280;20454;48.100;11.776;2022-11-14T16:22:05;95496.41;;;6.43;100.00
34185;BME280;20454;48.100;11.776;2022-11-14T16:24:34;95491.25;;;6.36;100.00
34185;BME280;20454;48.100;11.776;2022-11-14T16:27:00;95491.84;;;6.33;100.00
34185;BME280;20454;48.100;11.776;2022-11-14T16:29:27;95494.06;;;6.31;100.00
34185;BME280;20454;48.100;11.776;2022-11-14T16:31:53;95487.19;;;6.29;100.00
34185;BME280;20454;48.100;11.776;2022-11-14T16:34:22;95488.09;;;6.24;100.00
34185;BME280;20454;48.100;11.776;2022-11-14T16:36:48;95485.38;;;6.19;100.00
34185;BME280;20454;48.100;11.776;2022-11-14T16:39:16;95485.66;;;6.18;100.00
34185;BME280;20454;48.100;11.776;2022-11-14T16:41:42;95486.78;;;6.17;100.00
34185;BME280;20454;48.100;11.776;2022-11-14T16:44:14;95486.28;;;6.15;100.00
34185;BME280;20454;48.100;11.776;2022-11-14T16:46:42;95484.13;;;6.12;100.00
34185;BME280;20454;48.100;11.776;2022-11-14T16:49:16;95494.03;;;6.13;100.00
34185;BME280;20454;48.100;11.776;2022-11-14T16:51:43;95486.66;;;6.08;100.00
34185;BME280;20454;48.100;11.776;2022-11-14T16:54:10;95494.59;;;6.10;100.00
34185;BME280;20454;48.100;11.776;2022-11-14T16:56:37;95483.03;;;6.08;100.00
34185;BME280;20454;48.100;11.776;2022-11-14T16:59:02;95487.22;;;6.05;100.00
34185;BME280;20454;48.100;11.776;2022-11-14T17:01:28;95482.59;;;6.01;100.00
34185;BME280;20454;48.100;11.776;2022-11-14T17:03:56;95497.47;;;6.05;100.00
34185;BME280;20454;48.100;11.776;2022-11-14T17:06:25;95490.88;;;6.01;100.00
34185;BME280;20454;48.100;11.776;2022-11-14T17:08:56;95486.75;;;5.98;100.00
34185;BME280;20454;48.100;11.776;2022-11-14T17:11:23;95497.28;;;5.96;100.00
34185;BME280;20454;48.100;11.776;2022-11-14T17:13:49;95485.75;;;5.89;100.00
34185;BME280;20454;48.100;11.776;2022-11-14T17:16:15;95488.28;;;5.86;100.00
34185;BME280;20454;48.100;11.776;2022-11-14T17:18:42;95489.16;;;5.81;100.00
34185;BME280;20454;48.100;11.776;2022-11-14T17:21:10;95479.78;;;5.77;100.00
34185;BME280;20454;48.100;11.776;2022-11-14T17:23:36;95483.41;;;5.73;100.00
34185;BME280;20454;48.100;11.776;2022-11-14T17:26:08;95483.19;;;5.69;100.00
34185;BME280;20454;48.100;11.776;2022-11-14T17:28:35;95484.59;;;5.67;100.00
34185;BME280;20454;48.100;11.776;2022-11-14T17:31:07;95487.34;;;5.67;100.00
34185;BME280;20454;48.100;11.776;2022-11-14T17:33:33;95495.09;;;5.65;100.00
34185;BME280;20454;48.100;11.776;2022-11-14T18:25:12;95487.75;;;5.27;100.00
34185;BME280;20454;48.100;11.776;2022-11-14T18:27:37;95488.56;;;5.27;100.00
34185;BME280;20454;48.100;11.776;2022-11-14T18:30:04;95486.09;;;5.26;100.00
34185;BME280;20454;48.100;11.776;2022-11-14T18:32:30;95481.22;;;5.18;100.00
34185;BME280;20454;48.100;11.776;2022-11-14T18:34:55;95474.34;;;5.15;100.00
34185;BME280;20454;48.100;11.776;2022-11-14T18:37:21;95480.94;;;5.19;100.00
34185;BME280;20454;48.100;11.776;2022-11-14T18:39:47;95479.03;;;5.15;100.00
34185;BME280;20454;48.100;11.776;2022-11-14T18:42:13;95479.34;;;5.08;100.00
34185;BME280;20454;48.100;11.776;2022-11-14T18:44:39;95489.56;;;5.08;100.00
34185;BME280;20454;48.100;11.776;2022-11-14T18:47:05;95470.59;;;5.01;100.00
34185;BME280;20454;48.100;11.776;2022-11-14T18:49:31;95464.00;;;4.97;100.00
34185;BME280;20454;48.100;11.776;2022-11-14T18:51:56;95476.38;;;5.00;100.00
34185;BME280;20454;48.100;11.776;2022-11-14T18:54:22;95481.91;;;5.00;100.00
34185;BME280;20454;48.100;11.776;2022-11-14T18:56:49;95476.13;;;4.96;100.00
34185;BME280;20454;48.100;11.776;2022-11-14T18:59:16;95468.19;;;4.95;100.00
34185;BME280;20454;48.100;11.776;2022-11-14T19:01:42;95473.97;;;4.93;100.00
34185;BME280;20454;48.100;11.776;2022-11-14T19:04:10;95473.19;;;4.88;100.00
34185;BME280;20454;48.100;11.776;2022-11-14T19:06:38;95475.16;;;4.82;100.00
34185;BME280;20454;48.100;11.776;2022-11-14T19:09:08;95471.88;;;4.80;100.00
34185;BME280;20454;48.100;11.776;2022-11-14T19:11:34;95480.66;;;4.82;100.00
34185;BME280;20454;48.100;11.776;2022-11-14T19:14:19;95476.00;;;4.78;100.00
34185;BME280;20454;48.100;11.776;2022-11-14T19:16:45;95470.78;;;4.76;100.00
34185;BME280;20454;48.100;11.776;2022-11-14T19:19:12;95473.84;;;4.75;100.00